Atlanta, Georgia
Traffic Map
Current Weather Conditions
Atlanta, Georgia
Overcast
Overcast
76°
Feels Like: 76°
Wind Chill: 76° Ceiling: 18000
Heat Index: 76° Visibility: 9mi
Dew Point: 70° Wind: 6mph
Humidity: 82% Direction: 290° (WNW)
Pressure: 30.03in Gusts: 0mph
Raw Report DataKATL 031252Z 29005KT 9SM FEW075 SCT110 BKN180 OVC250 24/21 A3003 RMK AO2 SLP160 VIRGA ALQDS ACC N-NE & NW T02440211
Traffic Incident Summary
Active as of:
Severity:
Category:
InformationThere was an issue retrieving the traffic information for this location. Please try a different location or try again shortly.
Advertisements
Track Severe Weather on mobile